Time;durP1;ratioP1;P1;durP2;ratioP2;P2;SDS_P1;SDS_P2;PMS_P1;PMS_P2;Temp;Humidity;BMP_temperature;BMP_pressure;BME280_temperature;BME280_humidity;BME280_pressure;Samples;Min_cycle;Max_cycle;Signal;HPM_P1;HPM_P2
2022/01/16 00:00:16;;;;;;;;;;;-1.20;99.90;-0.80;100592.00;;;;345087;28;95491;-89
2022/01/16 00:00:28;;;;;;;;;;;-1.20;99.90;-0.60;100591.00;;;;344718;28;83358;-89
2022/01/16 00:00:51;;;;;;;;;;;-1.30;99.90;-0.60;100586.00;;;;345110;28;95431;-89
2022/01/16 00:01:16;;;;;;;;;;;-1.20;99.90;-0.60;100590.00;;;;346035;28;83360;-89
2022/01/16 00:02:09;;;;;;;;;;;-1.20;99.90;-0.80;100594.00;;;;345979;28;83490;-89
2022/01/16 00:04:09;;;;;;;;;;;-1.30;99.90;-1.00;100606.00;;;;345448;28;92840;-89
2022/01/16 00:04:24;;;;;;;;;;;-1.30;99.90;-0.90;100604.00;;;;347278;28;82637;-89
2022/01/16 00:04:36;;;;;;;;;;;-1.40;99.90;-0.90;100599.00;;;;346571;28;95875;-89
2022/01/16 00:04:48;;;;;;;;;;;-1.40;99.90;-0.80;100604.00;;;;344854;28;82383;-89
2022/01/16 00:04:59;;;;;;;;;;;-1.40;99.90;-0.80;100596.00;;;;347895;27;96169;-89
2022/01/16 00:05:11;;;;;;;;;;;-1.40;99.90;-0.90;100606.00;;;;347612;28;82318;-89
2022/01/16 00:05:24;;;;;;;;;;;-1.40;99.90;-0.90;100611.00;;;;346729;28;94233;-89
2022/01/16 00:05:36;;;;;;;;;;;-1.40;99.90;-0.80;100606.00;;;;344691;28;83341;-89
2022/01/16 00:05:49;;;;;;;;;;;-1.40;99.90;-0.80;100611.00;;;;346284;28;93162;-89
2022/01/16 00:06:01;;;;;;;;;;;-1.40;99.90;-0.80;100605.00;;;;347533;28;82455;-89
2022/01/16 00:06:17;;;;;;;;;;;-1.40;99.90;-0.80;100607.00;;;;345241;28;94629;-89
2022/01/16 00:06:28;;;;;;;;;;;-1.40;99.90;-0.80;100613.00;;;;347509;28;83392;-89
2022/01/16 00:06:42;;;;;;;;;;;-1.40;99.90;-0.80;100611.00;;;;346440;28;95571;-89
2022/01/16 00:06:54;;;;;;;;;;;-1.40;99.90;-0.90;100612.00;;;;346078;28;82463;-89
2022/01/16 00:07:06;;;;;;;;;;;-1.40;99.90;-0.90;100612.00;;;;345180;28;96561;-89
2022/01/16 00:07:18;;;;;;;;;;;-1.40;99.90;-0.90;100611.00;;;;344758;28;83283;-89
2022/01/16 00:07:30;;;;;;;;;;;-1.40;99.90;-0.90;100608.00;;;;345302;28;94139;-89
2022/01/16 00:07:41;;;;;;;;;;;-1.40;99.90;-0.80;100601.00;;;;345896;28;83267;-89
2022/01/16 00:07:53;;;;;;;;;;;-1.40;99.90;-0.80;100600.00;;;;345476;28;92339;-89
2022/01/16 00:08:05;;;;;;;;;;;-1.40;99.90;-0.80;100594.00;;;;348558;27;83403;-88
2022/01/16 00:08:17;;;;;;;;;;;-1.40;99.90;-0.90;100601.00;;;;347831;27;94624;-89
2022/01/16 00:08:29;;;;;;;;;;;-1.40;99.90;-0.80;100594.00;;;;348919;27;83108;-89
2022/01/16 00:08:41;;;;;;;;;;;-1.40;99.90;-0.70;100593.00;;;;348083;27;94072;-89
2022/01/16 00:08:52;;;;;;;;;;;-1.40;99.90;-0.60;100590.00;;;;347388;28;83217;-90
2022/01/16 00:09:04;;;;;;;;;;;-1.40;99.90;-0.60;100582.00;;;;345276;28;96064;-89
2022/01/16 00:09:16;;;;;;;;;;;-1.40;99.90;-0.60;100583.00;;;;347635;28;83330;-89
2022/01/16 00:09:28;;;;;;;;;;;-1.40;99.90;-0.60;100582.00;;;;346699;28;94038;-89
2022/01/16 00:09:40;;;;;;;;;;;-1.40;99.90;-0.60;100586.00;;;;346177;28;82318;-89
2022/01/16 00:09:52;;;;;;;;;;;-1.40;99.90;-0.60;100577.00;;;;345339;28;92972;-89
2022/01/16 00:10:04;;;;;;;;;;;-1.40;99.90;-0.60;100581.00;;;;347433;28;82348;-89
2022/01/16 00:10:19;;;;;;;;;;;-1.40;99.90;-0.60;100580.00;;;;348033;27;95500;-89
2022/01/16 00:10:31;;;;;;;;;;;-1.30;99.90;-0.50;100580.00;;;;347464;28;83224;-89
2022/01/16 00:10:43;;;;;;;;;;;-1.30;99.90;-0.60;100587.00;;;;345286;28;93706;-89
2022/01/16 00:10:54;;;;;;;;;;;-1.30;99.90;-0.50;100576.00;;;;347509;28;83392;-89
2022/01/16 00:11:07;;;;;;;;;;;-1.30;99.90;-0.50;100580.00;;;;345360;28;94567;-89
2022/01/16 00:11:19;;;;;;;;;;;-1.30;99.90;-0.40;100574.00;;;;345850;28;83400;-88
2022/01/16 00:11:31;;;;;;;;;;;-1.30;99.90;-0.40;100580.00;;;;346693;28;93337;-89
2022/01/16 00:11:43;;;;;;;;;;;-1.30;99.90;-0.40;100577.00;;;;346087;28;83213;-89
2022/01/16 00:11:58;;;;;;;;;;;-1.30;99.90;-0.40;100582.00;;;;345477;28;92440;-89
2022/01/16 00:12:11;;;;;;;;;;;-1.30;99.90;-0.40;100589.00;;;;347497;28;83396;-89
2022/01/16 00:12:24;;;;;;;;;;;-1.30;99.90;-0.40;100581.00;;;;348147;27;94587;-89
2022/01/16 00:12:36;;;;;;;;;;;-1.20;99.90;-0.30;100599.00;;;;347473;28;83346;-89
2022/01/16 00:12:48;;;;;;;;;;;-1.20;99.90;-0.40;100582.00;;;;346687;28;93039;-89
2022/01/16 00:13:00;;;;;;;;;;;-1.20;99.90;-0.50;100591.00;;;;346088;28;83439;-89
2022/01/16 00:13:12;;;;;;;;;;;-1.20;99.90;-0.60;100590.00;;;;345390;28;93179;-89
2022/01/16 00:13:24;;;;;;;;;;;-1.20;99.90;-0.60;100597.00;;;;347425;28;83263;-89
2022/01/16 00:13:36;;;;;;;;;;;-1.20;99.90;-0.50;100603.00;;;;346447;28;96552;-89
2022/01/16 00:13:48;;;;;;;;;;;-1.20;99.90;-0.50;100604.00;;;;347321;28;82490;-89
2022/01/16 00:13:59;;;;;;;;;;;-1.20;99.90;-0.50;100604.00;;;;345121;28;95853;-89
2022/01/16 00:14:11;;;;;;;;;;;-1.20;99.90;-0.40;100606.00;;;;346092;28;82326;-89
2022/01/16 00:14:25;;;;;;;;;;;-1.20;99.90;-0.40;100593.00;;;;345367;28;93354;-89
2022/01/16 00:14:37;;;;;;;;;;;-1.20;99.90;-0.30;100606.00;;;;345943;28;83151;-89
2022/01/16 00:14:50;;;;;;;;;;;-1.20;99.90;-0.30;100617.00;;;;346324;27;96566;-89
2022/01/16 00:15:03;;;;;;;;;;;-1.20;99.90;-0.40;100601.00;;;;347435;28;82309;-89
2022/01/16 00:15:16;;;;;;;;;;;-1.20;99.90;-0.40;100613.00;;;;345167;28;95301;-89
2022/01/16 00:15:28;;;;;;;;;;;-1.20;99.90;-0.30;100617.00;;;;345747;28;83321;-89
2022/01/16 00:15:44;;;;;;;;;;;-1.10;99.90;-0.30;100619.00;;;;345252;28;94520;-89
2022/01/16 00:15:56;;;;;;;;;;;-1.10;99.90;-0.30;100616.00;;;;345934;28;83563;-89
2022/01/16 00:16:12;;;;;;;;;;;-1.10;99.90;-0.30;100616.00;;;;345392;28;91466;-89
2022/01/16 00:16:27;;;;;;;;;;;-1.10;99.90;-0.40;100614.00;;;;347581;28;83293;-89
2022/01/16 00:16:39;;;;;;;;;;;-1.10;99.90;-0.50;100614.00;;;;345472;28;91724;-89
2022/01/16 00:16:51;;;;;;;;;;;-1.20;99.90;-0.50;100617.00;;;;348856;27;83443;-89
2022/01/16 00:17:04;;;;;;;;;;;-1.20;99.90;-0.60;100610.00;;;;346422;28;96299;-89
2022/01/16 00:17:16;;;;;;;;;;;-1.20;99.90;-0.70;100614.00;;;;347402;28;83397;-89
2022/01/16 00:17:28;;;;;;;;;;;-1.20;99.90;-0.60;100607.00;;;;344003;28;92956;-89
2022/01/16 00:17:52;;;;;;;;;;;-1.20;99.90;-0.50;100596.00;;;;346760;28;83486;-89
2022/01/16 00:18:25;;;;;;;;;;;-1.20;99.90;-0.30;100593.00;;;;346159;28;83173;-89
2022/01/16 00:18:49;;;;;;;;;;;-1.20;99.90;-0.40;100589.00;;;;345145;28;96037;-89
2022/01/16 00:19:01;;;;;;;;;;;-1.20;99.90;-0.70;100591.00;;;;346943;28;83486;-89
2022/01/16 00:19:13;;;;;;;;;;;-1.20;99.90;-0.80;100583.00;;;;344740;28;93023;-89
2022/01/16 00:19:25;;;;;;;;;;;-1.20;99.90;-0.90;100598.00;;;;345623;28;83438;-89
2022/01/16 00:19:37;;;;;;;;;;;-1.20;99.90;-0.90;100583.00;;;;346446;28;96544;-89
2022/01/16 00:19:50;;;;;;;;;;;-1.20;99.90;-0.90;100583.00;;;;346077;28;83316;-89
2022/01/16 00:20:02;;;;;;;;;;;-1.20;99.90;-0.80;100586.00;;;;345256;28;94677;-89
2022/01/16 00:20:14;;;;;;;;;;;-1.30;99.90;-0.80;100583.00;;;;347188;28;83344;-88
2022/01/16 00:20:26;;;;;;;;;;;-1.30;99.90;-0.90;100588.00;;;;344897;28;95476;-88
2022/01/16 00:20:38;;;;;;;;;;;-1.30;99.90;-0.80;100583.00;;;;346755;28;83515;-89
2022/01/16 00:20:50;;;;;;;;;;;-1.30;99.90;-0.80;100588.00;;;;346225;28;95800;-89
2022/01/16 00:21:02;;;;;;;;;;;-1.30;99.90;-0.60;100581.00;;;;344517;28;83531;-89
2022/01/16 00:21:13;;;;;;;;;;;-1.30;99.90;-0.60;100581.00;;;;344022;28;92879;-89
2022/01/16 00:21:27;;;;;;;;;;;-1.30;99.90;-0.70;100591.00;;;;344660;28;83367;-89
2022/01/16 00:21:41;;;;;;;;;;;-1.30;99.90;-0.70;100580.00;;;;343865;28;93616;-89
2022/01/16 00:21:54;;;;;;;;;;;-1.30;99.90;-0.60;100591.00;;;;344654;28;83353;-89
2022/01/16 00:22:12;;;;;;;;;;;-1.30;99.90;-0.70;100597.00;;;;343695;28;96057;-89
2022/01/16 00:22:27;;;;;;;;;;;-1.30;99.90;-0.70;100591.00;;;;344660;28;83189;-89
2022/01/16 00:22:41;;;;;;;;;;;-1.30;99.90;-0.70;100604.00;;;;345370;28;94258;-88
2022/01/16 00:22:53;;;;;;;;;;;-1.30;99.90;-0.70;100602.00;;;;345791;28;83282;-89
2022/01/16 00:23:09;;;;;;;;;;;-1.30;99.90;-0.70;100607.00;;;;345201;28;94727;-89
2022/01/16 00:23:26;;;;;;;;;;;-1.30;99.90;-0.80;100608.00;;;;347535;28;83307;-89
2022/01/16 00:23:38;;;;;;;;;;;-1.30;99.90;-0.80;100619.00;;;;345149;28;94140;-89
2022/01/16 00:23:50;;;;;;;;;;;-1.30;99.90;-0.70;100611.00;;;;345788;28;83453;-89
2022/01/16 00:24:03;;;;;;;;;;;-1.30;99.90;-0.70;100615.00;;;;343899;28;94633;-89
2022/01/16 00:24:14;;;;;;;;;;;-1.40;99.90;-0.80;100609.00;;;;346150;28;82330;-89
2022/01/16 00:24:26;;;;;;;;;;;-1.30;99.90;-0.70;100604.00;;;;346744;28;94250;-89
2022/01/16 00:24:38;;;;;;;;;;;-1.40;99.90;-0.70;100616.00;;;;344605;28;83298;-88
2022/01/16 00:24:50;;;;;;;;;;;-1.40;99.90;-0.60;100598.00;;;;345320;28;94218;-89
2022/01/16 00:25:03;;;;;;;;;;;-1.30;99.90;-0.70;100602.00;;;;346031;28;83538;-89
2022/01/16 00:25:16;;;;;;;;;;;-1.30;99.90;-0.70;100596.00;;;;343813;28;94650;-89
2022/01/16 00:25:27;;;;;;;;;;;-1.30;99.90;-0.80;100599.00;;;;346102;28;83208;-89
2022/01/16 00:25:41;;;;;;;;;;;-1.30;99.90;-0.70;100592.00;;;;345301;28;93384;-89
2022/01/16 00:25:55;;;;;;;;;;;-1.40;99.90;-0.80;100588.00;;;;346134;28;83279;-89
2022/01/16 00:26:06;;;;;;;;;;;-1.40;99.90;-0.80;100592.00;;;;343731;28;95656;-89
2022/01/16 00:26:19;;;;;;;;;;;-1.40;99.90;-0.90;100598.00;;;;346298;28;82356;-89
2022/01/16 00:26:32;;;;;;;;;;;-1.40;99.90;-0.90;100582.00;;;;345218;28;96846;-89
2022/01/16 00:26:44;;;;;;;;;;;-1.40;99.90;-0.80;100589.00;;;;346443;28;83252;-88
2022/01/16 00:26:56;;;;;;;;;;;-1.40;99.90;-0.80;100583.00;;;;346474;28;96490;-89
2022/01/16 00:27:08;;;;;;;;;;;-1.40;99.90;-0.80;100587.00;;;;347641;28;83220;-89
2022/01/16 00:27:20;;;;;;;;;;;-1.40;99.90;-0.80;100575.00;;;;347940;27;96228;-90
2022/01/16 00:27:31;;;;;;;;;;;-1.40;99.90;-0.90;100576.00;;;;346077;28;83409;-89
2022/01/16 00:27:43;;;;;;;;;;;-1.40;99.90;-0.90;100566.00;;;;346746;28;94213;-89
2022/01/16 00:27:55;;;;;;;;;;;-1.40;99.90;-0.80;100573.00;;;;347402;28;83537;-89
2022/01/16 00:28:07;;;;;;;;;;;-1.40;99.90;-0.70;100573.00;;;;346567;28;96553;-89
2022/01/16 00:28:19;;;;;;;;;;;-1.40;99.90;-0.70;100569.00;;;;345917;28;82353;-89
2022/01/16 00:28:31;;;;;;;;;;;-1.40;99.90;-0.80;100566.00;;;;345377;28;93173;-89
2022/01/16 00:28:43;;;;;;;;;;;-1.40;99.90;-0.80;100568.00;;;;349954;27;83488;-89
2022/01/16 00:28:55;;;;;;;;;;;-1.40;99.90;-0.60;100566.00;;;;346727;28;93981;-89
2022/01/16 00:29:07;;;;;;;;;;;-1.40;99.90;-0.60;100567.00;;;;348768;27;83391;-89
2022/01/16 00:29:19;;;;;;;;;;;-1.40;99.90;-0.60;100574.00;;;;347985;27;95542;-89
2022/01/16 00:29:31;;;;;;;;;;;-1.40;99.90;-0.60;100563.00;;;;345699;28;82614;-89
2022/01/16 00:29:43;;;;;;;;;;;-1.40;99.90;-0.60;100565.00;;;;345180;28;96326;-89
2022/01/16 00:29:57;;;;;;;;;;;-1.40;99.90;-0.60;100572.00;;;;346216;28;83398;-90
2022/01/16 00:30:09;;;;;;;;;;;-1.40;99.90;-0.70;100566.00;;;;346731;28;93590;-89
2022/01/16 00:30:21;;;;;;;;;;;-1.40;99.90;-0.60;100571.00;;;;347258;28;83502;-89
2022/01/16 00:30:33;;;;;;;;;;;-1.40;99.90;-0.60;100577.00;;;;344340;28;96997;-90
2022/01/16 00:30:45;;;;;;;;;;;-1.40;99.90;-0.70;100564.00;;;;345859;28;83344;-89
2022/01/16 00:30:57;;;;;;;;;;;-1.30;99.90;-0.60;100573.00;;;;345259;28;96480;-89
2022/01/16 00:31:09;;;;;;;;;;;-1.40;99.90;-0.70;100559.00;;;;346135;28;82212;-89
2022/01/16 00:31:22;;;;;;;;;;;-1.40;99.90;-0.80;100563.00;;;;346573;28;95940;-89
2022/01/16 00:31:36;;;;;;;;;;;-1.40;99.90;-0.90;100579.00;;;;347564;28;82527;-88
2022/01/16 00:31:49;;;;;;;;;;;-1.40;99.90;-0.90;100562.00;;;;345279;28;95636;-89
2022/01/16 00:32:01;;;;;;;;;;;-1.40;99.90;-0.90;100571.00;;;;346077;28;82446;-89
2022/01/16 00:32:13;;;;;;;;;;;-1.40;99.90;-0.80;100566.00;;;;345222;28;97637;-89
2022/01/16 00:32:25;;;;;;;;;;;-1.40;99.90;-0.90;100566.00;;;;344641;28;82512;-89
2022/01/16 00:32:36;;;;;;;;;;;-1.40;99.90;-0.90;100562.00;;;;348002;27;100929;-89
2022/01/16 00:32:48;;;;;;;;;;;-1.40;99.90;-0.80;100568.00;;;;345798;28;83577;-89
2022/01/16 00:33:01;;;;;;;;;;;-1.40;99.90;-1.00;100560.00;;;;343941;28;93093;-88
2022/01/16 00:33:13;;;;;;;;;;;-1.40;99.90;-1.00;100579.00;;;;347473;28;83451;-89
2022/01/16 00:33:25;;;;;;;;;;;-1.40;99.90;-0.90;100563.00;;;;345176;28;93724;-89
2022/01/16 00:33:42;;;;;;;;;;;-1.40;99.90;-0.90;100567.00;;;;346075;28;83424;-89
2022/01/16 00:33:53;;;;;;;;;;;-1.40;99.90;-0.80;100578.00;;;;345255;28;95606;-89
2022/01/16 00:34:06;;;;;;;;;;;-1.40;99.90;-0.70;100583.00;;;;346160;28;83166;-88
2022/01/16 00:34:17;;;;;;;;;;;-1.40;99.90;-0.70;100590.00;;;;346604;28;96743;-89
2022/01/16 00:34:29;;;;;;;;;;;-1.40;99.90;-0.80;100595.00;;;;347456;28;83363;-89
2022/01/16 00:34:41;;;;;;;;;;;-1.40;99.90;-0.80;100588.00;;;;348095;27;94047;-89
2022/01/16 00:34:53;;;;;;;;;;;-1.40;99.90;-0.70;100588.00;;;;348707;27;82577;-89
2022/01/16 00:35:05;;;;;;;;;;;-1.40;99.90;-0.70;100594.00;;;;345225;28;96657;-89
2022/01/16 00:35:16;;;;;;;;;;;-1.40;99.90;-0.60;100597.00;;;;347444;28;83363;-89
2022/01/16 00:35:28;;;;;;;;;;;-1.40;99.90;-0.60;100594.00;;;;346629;28;95766;-89
2022/01/16 00:35:40;;;;;;;;;;;-1.40;99.90;-0.80;100593.00;;;;347285;28;83381;-89
2022/01/16 00:35:52;;;;;;;;;;;-1.40;99.90;-0.70;100600.00;;;;346555;28;95549;-89
2022/01/16 00:36:08;;;;;;;;;;;-1.40;99.90;-0.60;100601.00;;;;348608;27;82416;-89
2022/01/16 00:36:20;;;;;;;;;;;-1.40;99.90;-0.60;100602.00;;;;346701;28;96279;-89
2022/01/16 00:36:32;;;;;;;;;;;-1.30;99.90;-0.60;100596.00;;;;348921;27;82226;-89
2022/01/16 00:36:45;;;;;;;;;;;-1.30;99.90;-0.50;100600.00;;;;345300;28;95332;-89
2022/01/16 00:36:57;;;;;;;;;;;-1.30;99.90;-0.60;100595.00;;;;348627;27;83464;-89
2022/01/16 00:37:09;;;;;;;;;;;-1.30;99.90;-0.60;100593.00;;;;345276;28;96150;-89
2022/01/16 00:37:20;;;;;;;;;;;-1.40;99.90;-0.70;100587.00;;;;345603;28;83415;-89
2022/01/16 00:37:32;;;;;;;;;;;-1.40;99.90;-0.70;100581.00;;;;345370;28;95384;-89
2022/01/16 00:37:46;;;;;;;;;;;-1.30;99.90;-0.80;100591.00;;;;346170;28;82373;-89
2022/01/16 00:37:58;;;;;;;;;;;-1.40;99.90;-0.70;100588.00;;;;346845;28;96355;-89
2022/01/16 00:38:10;;;;;;;;;;;-1.40;99.90;-0.60;100591.00;;;;347646;28;83432;-88
2022/01/16 00:38:22;;;;;;;;;;;-1.40;99.90;-0.60;100597.00;;;;346927;28;96475;-89
2022/01/16 00:38:34;;;;;;;;;;;-1.40;99.90;-0.60;100586.00;;;;347620;28;83464;-89
2022/01/16 00:38:46;;;;;;;;;;;-1.30;99.90;-0.50;100602.00;;;;348290;27;96084;-89
2022/01/16 00:38:58;;;;;;;;;;;-1.30;99.90;-0.50;100599.00;;;;347585;28;82519;-89
2022/01/16 00:39:10;;;;;;;;;;;-1.30;99.90;-0.50;100608.00;;;;346895;28;95819;-89
2022/01/16 00:39:22;;;;;;;;;;;-1.30;99.90;-0.50;100613.00;;;;351903;27;83785;-89
2022/01/16 00:39:34;;;;;;;;;;;-1.30;99.90;-0.50;100615.00;;;;346962;28;95913;-89
2022/01/16 00:39:45;;;;;;;;;;;-1.30;99.90;-0.50;100616.00;;;;349061;27;83261;-89
2022/01/16 00:39:57;;;;;;;;;;;-1.30;99.90;-0.50;100632.00;;;;348305;27;97439;-88
2022/01/16 00:40:10;;;;;;;;;;;-1.30;99.90;-0.40;100630.00;;;;349020;27;83378;-89
2022/01/16 00:40:21;;;;;;;;;;;-1.30;99.90;-0.50;100640.00;;;;345508;28;96486;-89
2022/01/16 00:40:33;;;;;;;;;;;-1.20;99.90;-0.60;100645.00;;;;346318;28;83279;-89
2022/01/16 00:40:45;;;;;;;;;;;-1.20;99.90;-0.60;100646.00;;;;346853;28;96635;-89
2022/01/16 00:40:57;;;;;;;;;;;-1.20;99.90;-0.60;100644.00;;;;347486;28;82342;-88
2022/01/16 00:41:12;;;;;;;;;;;-1.20;99.90;-0.60;100653.00;;;;348020;27;95815;-89
2022/01/16 00:41:26;;;;;;;;;;;-1.20;99.90;-0.60;100641.00;;;;346252;28;83273;-89
2022/01/16 00:41:37;;;;;;;;;;;-1.30;99.90;-0.50;100643.00;;;;346692;28;95350;-89
2022/01/16 00:41:49;;;;;;;;;;;-1.20;99.90;-0.40;100633.00;;;;347659;28;83301;-88
2022/01/16 00:42:01;;;;;;;;;;;-1.20;99.90;-0.40;100634.00;;;;345603;28;95259;-87
2022/01/16 00:42:13;;;;;;;;;;;-1.20;99.90;-0.60;100633.00;;;;344865;28;83261;-89
2022/01/16 00:42:24;;;;;;;;;;;-1.20;99.90;-0.70;100629.00;;;;345532;28;96181;-89
2022/01/16 00:42:36;;;;;;;;;;;-1.20;99.90;-0.60;100623.00;;;;347662;28;83246;-89
2022/01/16 00:42:48;;;;;;;;;;;-1.20;99.90;-0.50;100622.00;;;;345532;28;95647;-89
2022/01/16 00:43:00;;;;;;;;;;;-1.20;99.90;-0.60;100615.00;;;;346287;28;82324;-89
2022/01/16 00:43:13;;;;;;;;;;;-1.20;99.90;-0.60;100621.00;;;;349734;27;95690;-89
2022/01/16 00:43:25;;;;;;;;;;;-1.20;99.90;-0.60;100619.00;;;;346311;28;83152;-89
2022/01/16 00:43:37;;;;;;;;;;;-1.20;99.90;-0.60;100617.00;;;;348350;27;96077;-89
2022/01/16 00:43:49;;;;;;;;;;;-1.30;99.90;-0.70;100622.00;;;;346327;28;82573;-89
2022/01/16 00:44:01;;;;;;;;;;;-1.30;99.90;-0.70;100621.00;;;;346880;28;97208;-89
2022/01/16 00:44:13;;;;;;;;;;;-1.20;99.90;-0.70;100634.00;;;;347654;27;83512;-89
2022/01/16 00:44:25;;;;;;;;;;;-1.30;99.90;-0.60;100625.00;;;;348310;27;96280;-89
2022/01/16 00:44:37;;;;;;;;;;;-1.30;99.90;-0.50;100623.00;;;;346334;28;82528;-89
2022/01/16 00:44:48;;;;;;;;;;;-1.30;99.90;-0.60;100632.00;;;;342623;28;96314;-89
2022/01/16 00:45:02;;;;;;;;;;;-1.20;99.90;-0.70;100635.00;;;;344880;28;83454;-89
2022/01/16 00:45:14;;;;;;;;;;;-1.20;99.90;-0.70;100638.00;;;;345509;28;95275;-88
2022/01/16 00:45:26;;;;;;;;;;;-1.30;99.90;-0.60;100642.00;;;;346218;28;83177;-89
2022/01/16 00:45:38;;;;;;;;;;;-1.30;99.90;-0.60;100647.00;;;;344209;28;94383;-89
2022/01/16 00:45:49;;;;;;;;;;;-1.30;99.90;-0.70;100642.00;;;;346328;28;83444;-89
2022/01/16 00:46:01;;;;;;;;;;;-1.30;99.90;-0.60;100644.00;;;;346910;28;95307;-89
2022/01/16 00:46:13;;;;;;;;;;;-1.30;99.90;-0.60;100638.00;;;;347440;28;83362;-89
2022/01/16 00:46:25;;;;;;;;;;;-1.30;99.90;-0.60;100640.00;;;;344232;28;96461;-89
2022/01/16 00:46:37;;;;;;;;;;;-1.30;99.90;-0.60;100643.00;;;;344954;28;83362;-89
2022/01/16 00:46:49;;;;;;;;;;;-1.30;99.90;-0.70;100641.00;;;;345100;28;95176;-89
2022/01/16 00:47:01;;;;;;;;;;;-1.30;99.90;-0.60;100638.00;;;;346227;28;83404;-89
2022/01/16 00:47:13;;;;;;;;;;;-1.30;99.90;-0.50;100634.00;;;;344106;28;96744;-89
2022/01/16 00:47:25;;;;;;;;;;;-1.30;99.90;-0.60;100636.00;;;;343657;28;82493;-89
2022/01/16 00:47:36;;;;;;;;;;;-1.20;99.90;-0.70;100627.00;;;;344220;28;94565;-89
2022/01/16 00:47:48;;;;;;;;;;;-1.30;99.90;-0.80;100630.00;;;;346328;28;83258;-89
2022/01/16 00:48:02;;;;;;;;;;;-1.30;99.90;-0.90;100621.00;;;;346917;28;95600;-89
2022/01/16 00:48:14;;;;;;;;;;;-1.30;99.90;-0.90;100613.00;;;;345009;28;83262;-89
2022/01/16 00:48:26;;;;;;;;;;;-1.40;99.90;-0.90;100613.00;;;;345601;28;95878;-88
2022/01/16 00:48:37;;;;;;;;;;;-1.30;99.90;-0.80;100617.00;;;;346331;28;83343;-89
2022/01/16 00:48:49;;;;;;;;;;;-1.30;99.90;-0.90;100603.00;;;;344142;28;95169;-89
2022/01/16 00:49:02;;;;;;;;;;;-1.30;99.90;-1.00;100611.00;;;;347658;28;82532;-89
2022/01/16 00:49:15;;;;;;;;;;;-1.40;99.90;-1.00;100617.00;;;;344194;28;96156;-88
2022/01/16 00:49:26;;;;;;;;;;;-1.40;99.90;-1.00;100614.00;;;;346337;28;83236;-89
2022/01/16 00:49:41;;;;;;;;;;;-1.40;99.90;-1.00;100620.00;;;;344245;28;93174;-89
2022/01/16 00:49:52;;;;;;;;;;;-1.40;99.90;-0.80;100627.00;;;;346282;28;83304;-89
2022/01/16 00:50:05;;;;;;;;;;;-1.40;99.90;-0.70;100631.00;;;;344205;28;93704;-89
2022/01/16 00:50:16;;;;;;;;;;;-1.40;99.90;-0.80;100635.00;;;;347569;28;83431;-89
2022/01/16 00:50:29;;;;;;;;;;;-1.40;99.90;-0.80;100632.00;;;;343928;28;97019;-89
2022/01/16 00:50:41;;;;;;;;;;;-1.40;99.90;-0.80;100633.00;;;;348824;27;83537;-89
2022/01/16 00:50:53;;;;;;;;;;;-1.40;99.90;-0.80;100636.00;;;;346908;28;95080;-89
2022/01/16 00:51:04;;;;;;;;;;;-1.40;99.90;-0.80;100640.00;;;;347429;28;83367;-89
2022/01/16 00:51:16;;;;;;;;;;;-1.40;99.90;-0.80;100645.00;;;;346972;28;92139;-89
2022/01/16 00:51:28;;;;;;;;;;;-1.40;99.90;-0.90;100650.00;;;;349080;27;83349;-89
2022/01/16 00:51:40;;;;;;;;;;;-1.40;99.90;-0.90;100651.00;;;;347540;28;93370;-89
2022/01/16 00:51:51;;;;;;;;;;;-1.40;99.90;-0.90;100647.00;;;;349652;28;82552;-88
2022/01/16 00:52:04;;;;;;;;;;;-1.50;99.90;-0.80;100651.00;;;;350178;27;95413;-88
2022/01/16 00:52:15;;;;;;;;;;;-1.50;99.90;-0.80;100643.00;;;;345322;28;82281;-88
2022/01/16 00:52:27;;;;;;;;;;;-1.50;99.90;-0.70;100647.00;;;;347824;28;93175;-89
2022/01/16 00:52:39;;;;;;;;;;;-1.50;99.90;-0.80;100644.00;;;;349601;28;82568;-88
2022/01/16 00:52:52;;;;;;;;;;;-1.50;99.90;-0.80;100652.00;;;;348635;27;94958;-89
2022/01/16 00:53:03;;;;;;;;;;;-1.50;99.90;-0.80;100644.00;;;;348111;28;82361;-88
2022/01/16 00:53:15;;;;;;;;;;;-1.50;99.90;-0.80;100635.00;;;;348514;28;92265;-89
2022/01/16 00:53:27;;;;;;;;;;;-1.50;99.90;-0.80;100639.00;;;;347730;28;82280;-89
2022/01/16 00:53:39;;;;;;;;;;;-1.50;99.90;-0.90;100642.00;;;;348041;28;94431;-88
2022/01/16 00:53:51;;;;;;;;;;;-1.50;99.90;-0.90;100642.00;;;;346645;28;82567;-88
2022/01/16 00:54:03;;;;;;;;;;;-1.50;99.90;-0.90;100633.00;;;;348114;28;93301;-89
2022/01/16 00:54:15;;;;;;;;;;;-1.50;99.90;-0.80;100631.00;;;;348088;28;82370;-88
2022/01/16 00:54:26;;;;;;;;;;;-1.50;99.90;-0.70;100635.00;;;;348934;28;93307;-88
2022/01/16 00:54:38;;;;;;;;;;;-1.50;99.90;-0.70;100637.00;;;;349818;28;82315;-88
2022/01/16 00:54:50;;;;;;;;;;;-1.50;99.90;-0.80;100642.00;;;;348258;28;91922;-88
2022/01/16 00:55:04;;;;;;;;;;;-1.50;99.90;-0.70;100647.00;;;;349531;27;82560;-88
2022/01/16 00:55:15;;;;;;;;;;;-1.50;99.90;-0.80;100641.00;;;;348774;28;94729;-88
2022/01/16 00:55:27;;;;;;;;;;;-1.50;99.90;-0.70;100650.00;;;;348291;28;82430;-88
2022/01/16 00:55:41;;;;;;;;;;;-1.40;99.90;-0.80;100651.00;;;;350176;27;93715;-88
2022/01/16 00:55:52;;;;;;;;;;;-1.50;99.90;-0.80;100657.00;;;;349662;28;82444;-89
2022/01/16 00:56:05;;;;;;;;;;;-1.50;99.90;-0.80;100660.00;;;;347428;28;92741;-88
2022/01/16 00:56:17;;;;;;;;;;;-1.50;99.90;-0.90;100662.00;;;;349071;27;82273;-89
2022/01/16 00:56:29;;;;;;;;;;;-1.50;99.90;-1.00;100660.00;;;;349584;27;94225;-88
2022/01/16 00:56:41;;;;;;;;;;;-1.50;99.90;-0.90;100653.00;;;;348113;28;82445;-89
2022/01/16 00:56:53;;;;;;;;;;;-1.50;99.90;-0.80;100661.00;;;;345758;28;91820;-88
2022/01/16 00:57:05;;;;;;;;;;;-1.50;99.90;-0.90;100665.00;;;;346402;28;82290;-89
2022/01/16 00:57:16;;;;;;;;;;;-1.50;99.90;-0.80;100662.00;;;;343884;28;96808;-89
2022/01/16 00:57:29;;;;;;;;;;;-1.50;99.90;-0.80;100664.00;;;;346110;28;83433;-89
2022/01/16 00:57:41;;;;;;;;;;;-1.50;99.90;-0.70;100664.00;;;;345747;28;91927;-89
2022/01/16 00:57:53;;;;;;;;;;;-1.50;99.90;-0.60;100659.00;;;;347774;28;83398;-89
2022/01/16 00:58:05;;;;;;;;;;;-1.50;99.90;-0.70;100649.00;;;;345522;28;96824;-89
2022/01/16 00:58:16;;;;;;;;;;;-1.50;99.90;-0.80;100655.00;;;;346058;28;83532;-89
2022/01/16 00:58:28;;;;;;;;;;;-1.50;99.90;-0.80;100654.00;;;;345543;28;93858;-88
2022/01/16 00:58:40;;;;;;;;;;;-1.50;99.90;-1.00;100648.00;;;;344987;28;82347;-88
2022/01/16 00:58:52;;;;;;;;;;;-1.50;99.90;-1.00;100651.00;;;;346897;27;94492;-88
2022/01/16 00:59:04;;;;;;;;;;;-1.50;99.90;-1.00;100648.00;;;;347709;28;82334;-89
2022/01/16 00:59:16;;;;;;;;;;;-1.50;99.90;-0.90;100659.00;;;;348234;27;96399;-89
2022/01/16 00:59:28;;;;;;;;;;;-1.50;99.90;-0.90;100655.00;;;;348752;27;83358;-89
2022/01/16 00:59:40;;;;;;;;;;;-1.50;99.90;-0.90;100659.00;;;;345635;28;93371;-89
2022/01/16 00:59:52;;;;;;;;;;;-1.50;99.90;-0.90;100655.00;;;;346368;28;83339;-89
2022/01/16 01:00:05;;;;;;;;;;;-1.50;99.90;-0.80;100660.00;;;;348087;27;96580;-89
2022/01/16 01:00:16;;;;;;;;;;;-1.50;99.90;-0.80;100660.00;;;;346296;28;83252;-89
2022/01/16 01:00:31;;;;;;;;;;;-1.50;99.90;-0.90;100655.00;;;;347009;28;94024;-89
2022/01/16 01:00:43;;;;;;;;;;;-1.50;99.90;-0.80;100654.00;;;;347527;27;82580;-89
2022/01/16 01:00:55;;;;;;;;;;;-1.50;99.90;-0.90;100650.00;;;;345640;28;93237;-89
2022/01/16 01:01:08;;;;;;;;;;;-1.50;99.90;-0.80;100644.00;;;;348925;27;82628;-88
2022/01/16 01:01:20;;;;;;;;;;;-1.50;99.90;-0.70;100635.00;;;;344310;28;94258;-88
2022/01/16 01:01:32;;;;;;;;;;;-1.50;99.90;-0.70;100633.00;;;;347277;27;83624;-88
2022/01/16 01:01:44;;;;;;;;;;;-1.50;99.90;-0.80;100628.00;;;;345594;28;92586;-89
2022/01/16 01:01:56;;;;;;;;;;;-1.50;99.90;-0.80;100616.00;;;;346306;28;83387;-89
2022/01/16 01:02:08;;;;;;;;;;;-1.50;99.90;-0.80;100614.00;;;;346855;28;94956;-89
2022/01/16 01:02:19;;;;;;;;;;;-1.50;99.90;-0.70;100617.00;;;;346207;28;83467;-89
2022/01/16 01:02:31;;;;;;;;;;;-1.50;99.90;-0.70;100607.00;;;;346396;28;95382;-89
2022/01/16 01:02:43;;;;;;;;;;;-1.50;99.90;-0.80;100596.00;;;;347698;28;83376;-89
2022/01/16 01:02:55;;;;;;;;;;;-1.50;99.90;-0.80;100593.00;;;;345378;28;95722;-89
2022/01/16 01:03:06;;;;;;;;;;;-1.50;99.90;-0.70;100591.00;;;;346393;28;83242;-89
2022/01/16 01:03:19;;;;;;;;;;;-1.50;99.90;-0.70;100580.00;;;;345591;28;95550;-89
2022/01/16 01:03:31;;;;;;;;;;;-1.50;99.90;-0.80;100575.00;;;;347176;27;83413;-89
2022/01/16 01:03:43;;;;;;;;;;;-1.50;99.90;-0.80;100570.00;;;;346971;28;93088;-89